Lindsborg, KS

11:13 AM CDT on July 29, 2015 (GMT -0500)
APRSWXNET | | Change Station
CLOSE
Current Station
Personal Weather Station
Location: Lindsborg, KS
Elevation: 1318 ft
Nearby Weather Stations

Elev 1318 ft 38.59 °N, 97.61 °W | Updated 22 minutes ago

Partly Cloudy
Partly Cloudy
71 °F
Feels Like 71 °F
N
0
Wind Variable Wind from NW
Gusts 3.0 mph

Today
High -- | Low -- °F
--% Chance of Precip.
Yesterday
High -- | Low -- °F
Precip. -- in
6:29 AM 8:44 PM
Waxing Gibbous, 96% visible
Pressure 30.09 in
Visibility 10.0 miles
Clouds Mostly Cloudy 11000 ft
Dew Point 69 °F
Humidity 92%
Rainfall in
Snow Depth Not available.
UV 4 out of 12
Pollen 4.20 out of 12
Air Quality Not available.
Flu Activity Not available.
METAR KSLN 291553Z 03013G21KT 10SM BKN110 22/17 A3013 RMK AO2 SLP189 T02170172

More Conditions Fewer Conditions

Pressure 30.09 in
Visibility 10.0 miles
Clouds Mostly Cloudy 11000 ft
Dew Point 69 °F
Humidity 92%
Rainfall in
Snow Depth Not available.
UV 4 out of 12
Pollen 4.20 out of 12
Air Quality Not available.
Flu Activity Not available.
METAR KSLN 291553Z 03013G21KT 10SM BKN110 22/17 A3013 RMK AO2 SLP189 T02170172

More Conditions Fewer Conditions

10-Day Weather Forecast

×

Almanac

Astronomy

Jul. 29, 2015 Rise Set
Actual Time
Civil Twilight
Nautical Twilight
Astronomical Twilight
Moon
Length of Visible Light
Length of Day
Tomorrow will be .
, % of the Moon is Illuminated

Today's Extremes

State Highs State Lows

Community

WunderPhotos

Upload Photos

1,842,123 photos uploaded!

WunderBlogs® & News

Nearby

Air Quality

  Air Quality AQ Index Pollutant
Not available.

Snow Depth

Station Depth Elevation

Earthquake Activity

City Distance Mag. Time & Date
Minimum magnitude displayed is 2.5.

Coastal Water Temperatures

Place Temperature

Stations

Nearby Weather Stations

Station Location Temp. Windchill Dew Point Humidity Wind Precip. Elev Updated Type